Time;durP1;ratioP1;P1;durP2;ratioP2;P2;SDS_P1;SDS_P2;PMS_P1;PMS_P2;Temp;Humidity;BMP_temperature;BMP_pressure;BME280_temperature;BME280_humidity;BME280_pressure;Samples;Min_cycle;Max_cycle;Signal;HPM_P1;HPM_P2
2021/05/29 00:00:56;;;;;;;6.43;5.32;;;19.30;88.60;;;;;;5070147;28;20100;-65
2021/05/29 00:03:24;;;;;;;6.97;5.78;;;19.20;88.60;;;;;;5072080;28;20028;-65
2021/05/29 00:05:50;;;;;;;5.70;5.10;;;19.20;88.90;;;;;;5072570;28;20029;-65
2021/05/29 00:08:16;;;;;;;6.53;5.50;;;19.20;89.00;;;;;;5073721;28;20461;-65
2021/05/29 00:10:45;;;;;;;6.15;5.55;;;19.20;89.20;;;;;;5076113;28;20039;-65
2021/05/29 00:13:12;;;;;;;8.82;5.63;;;19.20;89.10;;;;;;5074569;28;20031;-65
2021/05/29 00:15:39;;;;;;;7.60;6.90;;;19.20;89.10;;;;;;5060469;28;20021;-65
2021/05/29 00:18:06;;;;;;;7.22;6.38;;;19.20;89.10;;;;;;5056354;28;20025;-65
2021/05/29 00:20:33;;;;;;;7.15;6.45;;;19.20;89.10;;;;;;5069975;28;20358;-65
2021/05/29 00:23:00;;;;;;;7.97;7.20;;;19.20;89.20;;;;;;5076092;28;20392;-65
2021/05/29 00:25:25;;;;;;;7.63;6.93;;;19.20;89.30;;;;;;5075633;28;20029;-65
2021/05/29 00:27:51;;;;;;;9.55;7.75;;;19.20;89.30;;;;;;5074410;28;20043;-65
2021/05/29 00:30:17;;;;;;;9.77;8.35;;;19.10;89.00;;;;;;5071106;28;20028;-65
2021/05/29 00:32:43;;;;;;;9.27;7.65;;;19.10;89.20;;;;;;5074363;28;20020;-65
2021/05/29 00:35:10;;;;;;;8.82;7.93;;;19.00;89.40;;;;;;5074320;28;20031;-65
2021/05/29 00:37:36;;;;;;;9.82;8.43;;;19.00;89.60;;;;;;5075772;28;20028;-65
2021/05/29 00:40:04;;;;;;;8.55;6.47;;;19.00;89.70;;;;;;5075532;28;20393;-65
2021/05/29 00:42:29;;;;;;;8.13;7.28;;;19.00;89.40;;;;;;5075062;28;20033;-65
2021/05/29 00:44:57;;;;;;;7.78;6.97;;;19.00;89.30;;;;;;5074845;28;20427;-65
2021/05/29 00:47:26;;;;;;;7.03;6.32;;;19.00;89.20;;;;;;5075007;28;20076;-65
2021/05/29 00:49:53;;;;;;;8.10;7.40;;;18.90;89.50;;;;;;5075170;28;20032;-65
2021/05/29 00:52:22;;;;;;;9.60;7.50;;;18.90;89.80;;;;;;5074239;28;20017;-65
2021/05/29 00:54:48;;;;;;;8.43;7.47;;;18.90;89.80;;;;;;5075316;28;20021;-65
2021/05/29 00:57:14;;;;;;;8.50;7.18;;;18.90;89.90;;;;;;5075525;28;20035;-65
2021/05/29 00:59:41;;;;;;;8.63;7.68;;;18.90;89.70;;;;;;5075444;28;20067;-65
2021/05/29 01:02:08;;;;;;;8.52;7.63;;;18.90;89.80;;;;;;5072282;28;20064;-65
2021/05/29 01:04:34;;;;;;;8.70;7.90;;;18.90;89.60;;;;;;5075223;28;20032;-65
2021/05/29 01:07:01;;;;;;;8.43;7.53;;;18.90;89.60;;;;;;5075224;28;20024;-65
2021/05/29 01:09:28;;;;;;;9.77;8.88;;;18.80;89.60;;;;;;5075147;28;20013;-65
2021/05/29 01:11:54;;;;;;;9.10;8.20;;;18.80;89.60;;;;;;5075222;28;20468;-65
2021/05/29 01:14:19;;;;;;;9.43;8.38;;;18.70;89.80;;;;;;5075135;28;20020;-65
2021/05/29 01:16:59;;;;;;;9.73;8.82;;;18.70;89.70;;;;;;5073623;28;20039;-65
2021/05/29 01:19:26;;;;;;;9.13;7.50;;;18.70;89.60;;;;;;5069669;28;20024;-65
2021/05/29 01:21:53;;;;;;;9.00;8.07;;;18.70;90.00;;;;;;5074264;28;20422;-65
2021/05/29 01:24:20;;;;;;;8.20;7.40;;;18.70;90.00;;;;;;5071835;28;20024;-65
2021/05/29 01:26:47;;;;;;;7.72;7.00;;;18.70;89.70;;;;;;5074711;28;20060;-65
2021/05/29 01:29:14;;;;;;;9.40;8.50;;;18.50;89.60;;;;;;5074660;28;20028;-65
2021/05/29 01:31:42;;;;;;;9.85;8.88;;;18.40;90.10;;;;;;5073754;28;20032;-65
2021/05/29 01:34:08;;;;;;;10.80;8.77;;;18.40;90.40;;;;;;5074573;28;20029;-65
2021/05/29 01:36:38;;;;;;;9.90;8.90;;;18.40;90.50;;;;;;5074602;28;20036;-65
2021/05/29 01:39:06;;;;;;;9.75;8.80;;;18.40;90.60;;;;;;5074704;28;20388;-65
2021/05/29 01:41:33;;;;;;;10.70;9.60;;;18.40;90.80;;;;;;5074822;28;20056;-65
2021/05/29 01:43:59;;;;;;;11.20;9.68;;;18.40;91.00;;;;;;5074477;28;20097;-65
2021/05/29 01:46:24;;;;;;;11.25;10.15;;;18.50;90.80;;;;;;5072979;28;20037;-65
2021/05/29 01:48:51;;;;;;;12.05;10.75;;;18.50;90.90;;;;;;5073967;28;20484;-65
2021/05/29 01:51:22;;;;;;;12.50;11.05;;;18.60;90.90;;;;;;5069849;28;20029;-65
2021/05/29 01:53:49;;;;;;;12.90;11.10;;;18.60;90.80;;;;;;5070314;28;20029;-65
2021/05/29 01:56:15;;;;;;;18.52;15.18;;;18.60;90.70;;;;;;5073717;28;20036;-65
2021/05/29 01:58:42;;;;;;;22.55;15.85;;;18.70;90.70;;;;;;5074607;28;20020;-65
2021/05/29 02:01:12;;;;;;;30.25;19.90;;;18.70;90.60;;;;;;5073358;28;20028;-65
2021/05/29 02:03:38;;;;;;;22.55;16.02;;;18.70;90.60;;;;;;5074385;28;20480;-65
2021/05/29 02:06:04;;;;;;;26.30;16.92;;;18.80;90.60;;;;;;5069421;28;20036;-65
2021/05/29 02:08:31;;;;;;;27.80;20.63;;;18.80;90.60;;;;;;5073931;28;20025;-65
2021/05/29 02:10:56;;;;;;;46.70;27.35;;;18.80;90.60;;;;;;5073849;28;20025;-65
2021/05/29 02:13:25;;;;;;;47.17;27.80;;;18.90;90.60;;;;;;5074048;28;20544;-65
2021/05/29 02:15:51;;;;;;;48.60;29.80;;;18.90;90.50;;;;;;5071070;28;20070;-65
2021/05/29 02:18:17;;;;;;;48.97;30.15;;;18.90;90.60;;;;;;5073612;28;20070;-65
2021/05/29 02:20:59;;;;;;;48.92;27.13;;;18.90;90.50;;;;;;5073343;28;20028;-65
2021/05/29 02:23:30;;;;;;;;;;;18.90;90.40;;;;;;5067608;28;20484;-65
2021/05/29 02:26:03;;;;;;;32.33;18.98;;;18.80;90.20;;;;;;5071254;28;20277;-65
2021/05/29 02:28:31;;;;;;;25.42;17.65;;;18.80;90.40;;;;;;5065749;28;20411;-65
2021/05/29 02:30:57;;;;;;;18.10;14.23;;;18.80;90.50;;;;;;5059442;28;20028;-65
2021/05/29 02:33:24;;;;;;;18.88;13.95;;;18.80;90.50;;;;;;5071570;28;20464;-65
2021/05/29 02:35:51;;;;;;;16.30;12.85;;;18.70;90.50;;;;;;5070481;28;20024;-65
2021/05/29 02:38:17;;;;;;;14.85;12.77;;;18.70;90.50;;;;;;5071513;28;20029;-65
2021/05/29 02:40:43;;;;;;;13.98;11.82;;;18.70;90.60;;;;;;5071582;28;20048;-65
2021/05/29 02:43:08;;;;;;;14.52;11.98;;;18.70;90.60;;;;;;5072900;28;20020;-65
2021/05/29 02:45:34;;;;;;;13.63;12.20;;;18.80;90.60;;;;;;5072062;28;20067;-65
2021/05/29 02:48:00;;;;;;;13.65;11.45;;;18.80;90.60;;;;;;5073520;28;20032;-65
2021/05/29 02:50:26;;;;;;;13.73;12.32;;;18.80;90.70;;;;;;5072151;28;20085;-65
2021/05/29 02:52:52;;;;;;;13.23;11.88;;;18.80;90.60;;;;;;5068387;28;20460;-65
2021/05/29 02:55:25;;;;;;;15.65;12.20;;;18.80;90.50;;;;;;5073539;28;20439;-65
2021/05/29 02:57:55;;;;;;;14.40;12.48;;;18.80;90.60;;;;;;5073049;28;20092;-65
2021/05/29 03:00:23;;;;;;;14.98;12.60;;;18.80;90.60;;;;;;5071104;28;20379;-65
2021/05/29 03:02:49;;;;;;;14.85;12.90;;;18.90;90.50;;;;;;5071956;28;20433;-65
2021/05/29 03:05:15;;;;;;;16.00;13.57;;;18.90;90.50;;;;;;5073422;28;20024;-65
2021/05/29 03:07:41;;;;;;;16.00;13.52;;;18.90;90.40;;;;;;5073359;28;20099;-65
2021/05/29 03:10:08;;;;;;;15.55;13.38;;;18.90;90.40;;;;;;5067829;28;20248;-65
2021/05/29 03:12:37;;;;;;;15.43;13.82;;;18.90;90.50;;;;;;5073250;28;20085;-65
2021/05/29 03:15:08;;;;;;;16.73;13.52;;;19.00;90.50;;;;;;5073334;28;20499;-65
2021/05/29 03:17:34;;;;;;;17.20;14.30;;;19.00;90.60;;;;;;5072809;28;20056;-65
2021/05/29 03:20:00;;;;;;;17.80;14.57;;;19.00;90.60;;;;;;5072576;28;20161;-65
2021/05/29 03:22:26;;;;;;;17.58;13.75;;;19.00;90.50;;;;;;5073017;28;20036;-65
2021/05/29 03:24:51;;;;;;;17.67;13.90;;;19.10;90.50;;;;;;5073040;28;20025;-65
2021/05/29 03:27:18;;;;;;;16.30;14.15;;;19.10;90.30;;;;;;5067297;28;20032;-65
2021/05/29 03:29:45;;;;;;;19.33;15.02;;;19.10;90.20;;;;;;5059477;28;20064;-65
2021/05/29 03:32:11;;;;;;;16.85;14.80;;;19.10;90.20;;;;;;5071593;28;20039;-65
2021/05/29 03:34:37;;;;;;;16.70;14.88;;;19.10;90.20;;;;;;5056630;28;20028;-65
2021/05/29 03:37:04;;;;;;;17.80;15.50;;;19.10;90.10;;;;;;5072614;28;20029;-65
2021/05/29 03:39:30;;;;;;;19.23;15.48;;;19.10;90.20;;;;;;5072720;28;20104;-65
2021/05/29 03:41:56;;;;;;;16.67;14.75;;;19.00;90.20;;;;;;5073067;28;20095;-65
2021/05/29 03:44:21;;;;;;;19.15;16.42;;;19.00;90.10;;;;;;5077096;28;20028;-65
2021/05/29 03:46:47;;;;;;;19.73;15.52;;;19.00;90.10;;;;;;5074634;28;20125;-65
2021/05/29 03:49:13;;;;;;;16.50;14.27;;;19.00;90.10;;;;;;5076346;28;20032;-65
2021/05/29 03:51:38;;;;;;;15.48;13.68;;;19.00;90.10;;;;;;5076603;28;20491;-65
2021/05/29 03:54:04;;;;;;;16.33;13.95;;;18.90;90.00;;;;;;5076106;28;20374;-65
2021/05/29 03:56:30;;;;;;;16.55;14.32;;;18.90;90.00;;;;;;5060352;28;20020;-65
2021/05/29 03:58:55;;;;;;;17.17;14.43;;;18.90;90.00;;;;;;5061142;28;20017;-65
2021/05/29 04:01:21;;;;;;;15.52;13.77;;;18.90;90.20;;;;;;5071785;28;20378;-65
2021/05/29 04:03:47;;;;;;;13.43;12.07;;;19.00;90.10;;;;;;5075418;28;20020;-65
2021/05/29 04:06:13;;;;;;;15.30;13.73;;;19.00;90.20;;;;;;5076559;28;20040;-65
2021/05/29 04:08:38;;;;;;;13.05;11.65;;;19.00;90.20;;;;;;5076228;28;20415;-65
2021/05/29 04:11:04;;;;;;;13.10;11.77;;;19.00;90.20;;;;;;5076320;28;20012;-65
2021/05/29 04:13:30;;;;;;;12.40;11.20;;;19.00;90.20;;;;;;5076277;28;20074;-65
2021/05/29 04:15:55;;;;;;;12.55;11.25;;;19.00;90.20;;;;;;5069176;28;20021;-65
2021/05/29 04:18:21;;;;;;;11.82;10.60;;;19.00;90.20;;;;;;5074966;28;20385;-65
2021/05/29 04:20:46;;;;;;;12.13;10.70;;;19.10;90.30;;;;;;5075449;28;20033;-65
2021/05/29 04:23:12;;;;;;;12.02;10.82;;;19.20;90.40;;;;;;5076121;28;20107;-65
2021/05/29 04:25:38;;;;;;;11.07;9.82;;;19.20;90.50;;;;;;5075370;28;20071;-66
2021/05/29 04:28:04;;;;;;;10.38;9.07;;;19.30;90.70;;;;;;5075854;28;20032;-66
2021/05/29 04:30:30;;;;;;;9.02;8.20;;;19.50;90.70;;;;;;5075269;28;20138;-66
2021/05/29 04:32:56;;;;;;;8.98;7.93;;;19.80;90.70;;;;;;5063054;28;20021;-66
2021/05/29 04:35:23;;;;;;;8.80;7.93;;;20.00;90.30;;;;;;5075716;28;20017;-66
2021/05/29 04:37:49;;;;;;;7.90;7.20;;;20.40;89.80;;;;;;5065628;28;20025;-66
2021/05/29 04:40:18;;;;;;;9.02;7.18;;;20.60;89.40;;;;;;5055545;28;20036;-66
2021/05/29 04:42:43;;;;;;;8.02;7.32;;;20.80;88.70;;;;;;5059878;28;20029;-66
2021/05/29 04:45:11;;;;;;;7.57;6.88;;;21.00;87.10;;;;;;5074274;28;20021;-66
2021/05/29 04:47:37;;;;;;;8.48;6.88;;;21.20;85.90;;;;;;5075390;28;20127;-66
2021/05/29 04:50:07;;;;;;;7.90;7.20;;;21.20;85.10;;;;;;5075142;28;20051;-66
2021/05/29 04:52:34;;;;;;;9.25;6.93;;;21.10;84.70;;;;;;5075591;28;20024;-66
2021/05/29 04:55:00;;;;;;;7.28;6.57;;;21.00;85.20;;;;;;5074846;28;20472;-66
2021/05/29 04:57:25;;;;;;;6.68;5.93;;;21.10;85.60;;;;;;5074524;28;20019;-66
2021/05/29 04:59:51;;;;;;;6.68;5.97;;;21.30;86.00;;;;;;5074179;28;20020;-66
2021/05/29 05:02:17;;;;;;;6.75;6.05;;;21.60;85.50;;;;;;5070172;28;20025;-66
2021/05/29 05:04:42;;;;;;;8.10;5.90;;;21.80;84.30;;;;;;5055590;28;20037;-66
2021/05/29 05:07:08;;;;;;;6.53;5.68;;;22.10;83.80;;;;;;5055397;28;20031;-66
2021/05/29 05:09:34;;;;;;;5.63;5.13;;;22.30;82.80;;;;;;5055405;28;20064;-66
2021/05/29 05:11:59;;;;;;;6.57;5.97;;;22.40;81.60;;;;;;5055177;28;20025;-66
2021/05/29 05:14:25;;;;;;;7.75;5.90;;;22.40;80.60;;;;;;5055105;28;20025;-66
2021/05/29 05:16:51;;;;;;;6.90;5.80;;;22.20;80.80;;;;;;5069525;28;20073;-66
2021/05/29 05:19:17;;;;;;;6.45;5.88;;;22.10;80.20;;;;;;5070490;28;20039;-66
2021/05/29 05:21:42;;;;;;;6.78;5.93;;;21.90;80.40;;;;;;5065733;28;20028;-66
2021/05/29 05:24:08;;;;;;;6.65;6.05;;;21.60;80.60;;;;;;5074767;28;20042;-66
2021/05/29 05:26:34;;;;;;;7.15;6.35;;;21.50;81.10;;;;;;5074866;28;20040;-66
2021/05/29 05:29:00;;;;;;;6.60;5.90;;;21.30;81.70;;;;;;5074681;28;20031;-66
2021/05/29 05:31:26;;;;;;;7.55;6.47;;;21.10;81.90;;;;;;5072319;28;20021;-66
2021/05/29 05:33:53;;;;;;;6.35;5.75;;;21.00;82.20;;;;;;5074528;28;20056;-66
2021/05/29 05:36:20;;;;;;;6.82;5.90;;;20.90;82.30;;;;;;5074708;28;20044;-66
2021/05/29 05:38:46;;;;;;;6.95;5.78;;;20.80;82.60;;;;;;5074978;28;20076;-66
2021/05/29 05:41:12;;;;;;;6.90;5.70;;;20.70;82.70;;;;;;5074862;28;20393;-66
2021/05/29 05:43:38;;;;;;;6.60;5.90;;;20.60;83.00;;;;;;5074859;28;20027;-66
2021/05/29 05:46:04;;;;;;;6.90;5.93;;;20.60;83.30;;;;;;5072969;28;20045;-66
2021/05/29 05:48:31;;;;;;;6.88;6.15;;;20.50;83.40;;;;;;5074393;28;20025;-66
2021/05/29 05:50:59;;;;;;;6.40;5.80;;;20.50;83.60;;;;;;5064981;28;20020;-66
2021/05/29 05:53:27;;;;;;;7.07;5.80;;;20.40;83.80;;;;;;5073774;28;20025;-66
2021/05/29 05:56:02;;;;;;;6.78;6.07;;;20.40;83.80;;;;;;5057793;28;20033;-66
2021/05/29 05:58:29;;;;;;;6.47;5.80;;;20.30;84.00;;;;;;5067400;28;20039;-66
2021/05/29 06:00:55;;;;;;;6.40;5.80;;;20.30;84.10;;;;;;5072079;28;20029;-66
2021/05/29 06:03:21;;;;;;;5.95;5.32;;;20.30;84.30;;;;;;5073480;28;20111;-66
2021/05/29 06:05:47;;;;;;;7.53;5.70;;;20.30;84.40;;;;;;5074012;28;20024;-66
2021/05/29 06:08:14;;;;;;;6.00;5.40;;;20.30;84.60;;;;;;5069278;28;20060;-66
2021/05/29 06:10:40;;;;;;;6.30;5.60;;;20.30;84.70;;;;;;5073895;28;20036;-66
2021/05/29 06:13:10;;;;;;;5.72;5.20;;;20.30;84.50;;;;;;5073923;28;20025;-66
2021/05/29 06:18:58;;;;;;;5.47;4.93;;;20.40;84.50;;;;;;5064554;28;20035;-66
2021/05/29 06:21:15;;;;;;;6.30;5.70;;;20.40;84.50;;;;;;5072911;28;20042;-66
2021/05/29 06:23:41;;;;;;;5.72;4.82;;;20.40;84.60;;;;;;5071754;28;20012;-66
2021/05/29 06:26:07;;;;;;;5.63;5.10;;;20.50;84.10;;;;;;5062909;28;20028;-66
2021/05/29 06:28:32;;;;;;;6.78;5.05;;;20.50;84.00;;;;;;5066724;28;20028;-66
2021/05/29 06:30:58;;;;;;;8.18;5.80;;;20.50;84.10;;;;;;5070779;28;20134;-66
2021/05/29 06:33:24;;;;;;;5.72;5.20;;;20.50;83.90;;;;;;5071904;28;20099;-66
2021/05/29 06:35:49;;;;;;;6.15;5.55;;;20.50;84.10;;;;;;5073279;28;20387;-66
2021/05/29 06:38:15;;;;;;;6.22;5.63;;;20.60;84.20;;;;;;5073295;28;20380;-66
2021/05/29 06:40:41;;;;;;;8.02;5.60;;;20.60;84.20;;;;;;5073155;28;20078;-66
2021/05/29 06:43:06;;;;;;;7.00;5.85;;;20.70;84.50;;;;;;5073321;28;20078;-66
2021/05/29 06:45:32;;;;;;;6.32;5.72;;;20.70;84.30;;;;;;5073183;28;20032;-66
2021/05/29 06:47:59;;;;;;;5.57;5.07;;;20.80;84.50;;;;;;5071936;28;20032;-66
2021/05/29 06:50:25;;;;;;;5.82;4.95;;;20.90;85.10;;;;;;5071849;28;20094;-66
2021/05/29 06:52:54;;;;;;;6.53;5.38;;;20.90;84.40;;;;;;5073219;28;20024;-66
2021/05/29 07:00:48;;;;;;;6.13;5.32;;;21.20;84.00;;;;;;5068577;28;20487;-66
2021/05/29 07:03:14;;;;;;;5.90;5.30;;;21.30;83.90;;;;;;5069631;28;20040;-66
2021/05/29 07:05:39;;;;;;;5.88;5.18;;;21.30;83.90;;;;;;5071214;28;20131;-66
2021/05/29 07:08:05;;;;;;;7.10;6.07;;;21.30;84.20;;;;;;5072824;28;20385;-66
2021/05/29 07:10:31;;;;;;;6.65;5.70;;;21.20;83.50;;;;;;5069781;28;20029;-66
2021/05/29 07:12:56;;;;;;;6.72;5.93;;;21.20;83.50;;;;;;5067628;28;20029;-66
2021/05/29 07:15:27;;;;;;;6.25;5.65;;;21.10;83.60;;;;;;5071382;28;20028;-66
2021/05/29 07:17:54;;;;;;;6.88;5.78;;;21.10;83.50;;;;;;5052642;28;20373;-66
2021/05/29 07:20:19;;;;;;;6.90;6.20;;;21.00;83.80;;;;;;5062834;28;20067;-66
2021/05/29 07:22:45;;;;;;;8.85;6.65;;;21.00;84.00;;;;;;5070983;28;20063;-66
2021/05/29 07:25:11;;;;;;;8.55;6.82;;;21.00;84.20;;;;;;5070484;28;20477;-66
2021/05/29 07:27:37;;;;;;;6.93;6.22;;;21.00;84.60;;;;;;5063054;28;20086;-66
2021/05/29 07:30:07;;;;;;;7.55;6.75;;;20.90;84.40;;;;;;5069020;28;20025;-66
2021/05/29 07:32:36;;;;;;;9.33;6.50;;;20.90;84.30;;;;;;5070577;28;20370;-66
2021/05/29 07:35:04;;;;;;;6.47;5.88;;;20.80;84.20;;;;;;5071095;28;20031;-66
2021/05/29 07:37:29;;;;;;;7.05;6.45;;;20.80;84.20;;;;;;5070512;28;20115;-66
2021/05/29 07:39:55;;;;;;;6.68;6.07;;;20.80;84.60;;;;;;5068657;28;20564;-66
2021/05/29 07:42:21;;;;;;;6.95;6.25;;;20.80;84.40;;;;;;5069892;28;20566;-66
2021/05/29 07:44:48;;;;;;;9.18;6.35;;;20.70;84.30;;;;;;5064893;28;20566;-65
2021/05/29 07:47:13;;;;;;;7.25;5.90;;;20.70;84.40;;;;;;5060500;28;20048;-65
2021/05/29 07:49:39;;;;;;;6.97;6.28;;;20.70;84.50;;;;;;5072319;28;20028;-65
2021/05/29 07:52:05;;;;;;;6.45;5.85;;;20.70;84.60;;;;;;5071135;28;20385;-65
2021/05/29 07:54:31;;;;;;;7.57;6.15;;;20.70;84.40;;;;;;5071209;28;20029;-66
2021/05/29 07:56:58;;;;;;;7.10;6.40;;;20.70;84.60;;;;;;5065755;28;20029;-66
2021/05/29 07:59:23;;;;;;;7.03;6.35;;;20.70;84.60;;;;;;5069054;28;20044;-66
2021/05/29 08:01:49;;;;;;;7.00;6.13;;;20.80;84.80;;;;;;5067707;28;20024;-66
2021/05/29 08:04:17;;;;;;;6.93;6.15;;;20.80;85.60;;;;;;5068793;28;20029;-66
2021/05/29 08:06:43;;;;;;;6.60;6.00;;;20.90;84.80;;;;;;5070654;28;20028;-66
2021/05/29 08:09:09;;;;;;;7.55;6.28;;;20.90;84.70;;;;;;5071110;28;20036;-66
2021/05/29 08:11:37;;;;;;;7.03;6.32;;;21.00;84.90;;;;;;5069399;28;20082;-66
2021/05/29 08:14:04;;;;;;;6.75;6.05;;;21.10;84.60;;;;;;5067743;28;20028;-66
2021/05/29 08:16:30;;;;;;;9.18;6.65;;;21.10;84.20;;;;;;5070512;28;20071;-66
2021/05/29 08:18:55;;;;;;;7.72;7.03;;;21.20;84.10;;;;;;5065408;28;20425;-66
2021/05/29 08:21:22;;;;;;;7.38;6.68;;;21.30;84.30;;;;;;5059682;28;20074;-66
2021/05/29 08:23:48;;;;;;;7.68;6.97;;;21.30;84.40;;;;;;5069386;28;20074;-66
2021/05/29 08:26:14;;;;;;;7.82;6.72;;;21.40;84.50;;;;;;5069496;28;20028;-66
2021/05/29 08:28:40;;;;;;;7.32;6.63;;;21.50;84.30;;;;;;5069328;28;20051;-65
2021/05/29 08:31:05;;;;;;;8.05;7.20;;;21.60;84.20;;;;;;5070618;28;20087;-65
2021/05/29 08:33:32;;;;;;;7.43;6.72;;;21.70;84.10;;;;;;5072437;28;20025;-65
2021/05/29 08:35:58;;;;;;;7.95;7.18;;;21.80;83.80;;;;;;5074506;28;20035;-64
2021/05/29 08:38:24;;;;;;;7.57;6.88;;;21.90;84.00;;;;;;5073464;28;20021;-64
2021/05/29 08:40:50;;;;;;;8.05;7.25;;;21.90;82.80;;;;;;5063193;28;20020;-64
2021/05/29 08:43:16;;;;;;;7.07;6.38;;;22.00;82.50;;;;;;5073648;28;20070;-64
2021/05/29 08:45:41;;;;;;;7.35;6.65;;;22.00;82.40;;;;;;5069768;28;20423;-64
2021/05/29 08:48:07;;;;;;;7.15;6.15;;;22.00;82.30;;;;;;5073751;28;20063;-64
2021/05/29 08:50:33;;;;;;;11.57;6.60;;;22.00;82.20;;;;;;5071904;28;20375;-64
2021/05/29 08:52:59;;;;;;;7.75;6.95;;;22.00;82.00;;;;;;5072601;28;20031;-64
2021/05/29 08:55:25;;;;;;;8.40;7.53;;;21.90;81.80;;;;;;5071680;28;20067;-64
2021/05/29 08:57:51;;;;;;;7.22;6.53;;;22.00;81.80;;;;;;5073777;28;20048;-64
2021/05/29 09:00:27;;;;;;;7.75;7.05;;;21.90;81.70;;;;;;5074242;28;20040;-64
2021/05/29 09:03:00;;;;;;;8.68;7.88;;;21.90;81.40;;;;;;5066860;28;20126;-64
2021/05/29 09:05:36;;;;;;;8.02;7.22;;;21.80;81.20;;;;;;5069304;28;20028;-64
2021/05/29 09:08:10;;;;;;;8.13;7.40;;;21.80;81.10;;;;;;5068441;28;20433;-64
2021/05/29 09:10:50;;;;;;;8.90;8.10;;;21.80;81.40;;;;;;5072419;28;20412;-64
2021/05/29 09:13:21;;;;;;;9.80;8.80;;;21.70;81.30;;;;;;5069961;28;20024;-64
2021/05/29 09:15:54;;;;;;;11.80;9.23;;;21.70;81.00;;;;;;5064412;28;20032;-64
2021/05/29 09:18:40;;;;;;;11.20;10.15;;;21.70;81.40;;;;;;5072593;28;20034;-64
2021/05/29 09:21:30;;;;;;;12.15;10.88;;;21.70;81.60;;;;;;5072805;28;20036;-64
2021/05/29 09:24:01;;;;;;;10.82;9.75;;;21.70;81.70;;;;;;5072555;28;20020;-64
2021/05/29 09:26:50;;;;;;;11.98;10.77;;;21.70;81.70;;;;;;5073499;28;20033;-64
2021/05/29 09:29:30;;;;;;;12.73;11.50;;;21.80;81.60;;;;;;5071001;28;20116;-64
2021/05/29 09:32:03;;;;;;;12.35;11.05;;;21.80;81.30;;;;;;5071457;28;20024;-64
2021/05/29 09:34:42;;;;;;;12.75;11.45;;;21.80;81.30;;;;;;5071316;28;20051;-64
2021/05/29 09:37:09;;;;;;;13.23;11.93;;;21.90;80.90;;;;;;5072224;28;20028;-64
2021/05/29 09:39:40;;;;;;;13.93;12.43;;;21.90;80.90;;;;;;5073720;28;20024;-64
2021/05/29 09:42:07;;;;;;;;;;;21.90;80.60;;;;;;5074047;28;20040;-64
2021/05/29 09:44:33;;;;;;;12.52;11.23;;;21.80;80.80;;;;;;5073649;28;19920;-64
2021/05/29 09:47:00;;;;;;;15.60;12.73;;;21.80;81.00;;;;;;5072133;28;20037;-64
2021/05/29 09:49:48;;;;;;;11.70;10.55;;;21.80;80.80;;;;;;5072682;28;20032;-64
2021/05/29 09:52:37;;;;;;;13.38;11.40;;;21.80;80.80;;;;;;5071945;28;20062;-64
2021/05/29 09:55:05;;;;;;;12.88;11.57;;;21.80;80.80;;;;;;5071447;28;20025;-64
2021/05/29 09:57:31;;;;;;;13.88;12.55;;;21.80;80.60;;;;;;5072890;28;20543;-64
2021/05/29 10:00:04;;;;;;;14.80;13.20;;;21.80;80.70;;;;;;5072905;28;20498;-64
2021/05/29 10:02:30;;;;;;;14.57;13.18;;;21.80;80.20;;;;;;5073072;28;20036;-64
2021/05/29 10:04:56;;;;;;;13.25;11.88;;;21.80;80.50;;;;;;5073519;28;20032;-64
2021/05/29 10:07:38;;;;;;;14.23;12.68;;;21.80;79.90;;;;;;5067992;28;20028;-64
2021/05/29 10:10:05;;;;;;;13.98;12.57;;;21.80;79.90;;;;;;5069769;28;20037;-64
2021/05/29 10:12:31;;;;;;;15.88;14.27;;;21.80;79.70;;;;;;5070498;28;20029;-64
2021/05/29 10:14:57;;;;;;;15.93;14.20;;;21.80;79.70;;;;;;5072370;28;20150;-64
2021/05/29 10:17:24;;;;;;;14.82;13.32;;;21.80;80.00;;;;;;5072238;28;20024;-64
2021/05/29 10:19:51;;;;;;;16.08;14.48;;;21.80;79.70;;;;;;5072167;28;20028;-64
2021/05/29 10:22:18;;;;;;;15.50;13.88;;;21.70;79.40;;;;;;5070205;28;20040;-64
2021/05/29 10:24:46;;;;;;;16.67;14.88;;;21.70;79.70;;;;;;5061695;28;20507;-64
2021/05/29 10:27:24;;;;;;;16.35;14.48;;;21.70;79.90;;;;;;5070932;28;20411;-64
2021/05/29 10:29:55;;;;;;;15.45;13.85;;;21.70;80.00;;;;;;5070198;28;20032;-64
2021/05/29 10:32:20;;;;;;;15.82;14.13;;;21.70;79.50;;;;;;5073148;28;20028;-64
2021/05/29 10:35:08;;;;;;;13.93;12.52;;;21.70;79.60;;;;;;5073332;28;20472;-64
2021/05/29 10:37:39;;;;;;;14.55;11.95;;;21.70;79.50;;;;;;5073731;28;20390;-64
2021/05/29 10:40:18;;;;;;;12.70;11.05;;;21.70;79.50;;;;;;5073529;28;20043;-64
2021/05/29 10:42:46;;;;;;;9.48;8.50;;;21.70;79.60;;;;;;5069833;28;20032;-64
2021/05/29 10:45:21;;;;;;;11.50;9.55;;;21.70;78.70;;;;;;5072168;28;20388;-64
2021/05/29 10:48:11;;;;;;;10.25;8.30;;;21.70;78.30;;;;;;5070914;28;20089;-64
2021/05/29 10:53:43;;;;;;;9.38;7.95;;;21.60;77.80;;;;;;5072334;28;20082;-64
2021/05/29 10:56:15;;;;;;;10.25;8.82;;;21.60;77.60;;;;;;5073510;28;20496;-64
2021/05/29 10:59:13;;;;;;;11.38;8.75;;;21.60;77.80;;;;;;5066297;28;20025;-64
2021/05/29 11:01:43;;;;;;;9.27;7.72;;;21.60;77.80;;;;;;5052612;28;20170;-64
2021/05/29 11:04:12;;;;;;;8.45;7.55;;;21.60;77.60;;;;;;5071038;28;20444;-64
2021/05/29 11:06:39;;;;;;;10.13;7.90;;;21.60;77.10;;;;;;5072137;28;20032;-63
2021/05/29 11:09:06;;;;;;;11.77;9.13;;;21.60;77.30;;;;;;5069904;28;20032;-64
2021/05/29 11:11:38;;;;;;;10.68;9.57;;;21.60;77.90;;;;;;5060611;28;20060;-64
2021/05/29 11:14:06;;;;;;;11.27;8.70;;;21.60;78.50;;;;;;5060202;28;20532;-64
2021/05/29 11:16:47;;;;;;;9.63;8.73;;;21.50;78.60;;;;;;5069555;28;20480;-64
2021/05/29 11:19:17;;;;;;;10.23;8.38;;;21.50;79.00;;;;;;5056016;28;20491;-64
2021/05/29 11:22:07;;;;;;;9.43;8.35;;;21.40;79.10;;;;;;5059010;28;20074;-64
2021/05/29 11:24:35;;;;;;;10.27;8.97;;;21.40;79.20;;;;;;5061945;28;20021;-64
2021/05/29 11:27:05;;;;;;;9.27;8.38;;;21.30;79.30;;;;;;5071913;28;20017;-64
2021/05/29 11:29:52;;;;;;;10.98;7.85;;;21.30;79.80;;;;;;5062609;28;20031;-64
2021/05/29 11:32:47;;;;;;;8.40;7.45;;;21.20;80.20;;;;;;5070326;28;20104;-64
2021/05/29 11:35:31;;;;;;;7.65;6.88;;;21.20;80.20;;;;;;5068703;28;20082;-64
2021/05/29 11:38:21;;;;;;;8.27;7.18;;;21.10;80.30;;;;;;5058479;28;20534;-64
2021/05/29 11:41:08;;;;;;;7.78;6.97;;;21.10;80.40;;;;;;5071621;28;20555;-64
2021/05/29 11:43:40;;;;;;;7.65;6.85;;;21.10;80.60;;;;;;5073153;28;20483;-64
2021/05/29 11:46:19;;;;;;;9.40;7.07;;;21.00;80.80;;;;;;5070281;28;20397;-64
2021/05/29 11:49:00;;;;;;;7.97;6.47;;;21.10;80.90;;;;;;5068587;28;20051;-64
2021/05/29 11:51:28;;;;;;;7.25;6.55;;;21.10;80.70;;;;;;5065210;28;20032;-64
2021/05/29 11:54:06;;;;;;;7.20;6.38;;;21.10;80.60;;;;;;5072094;28;20025;-64
2021/05/29 11:56:34;;;;;;;6.22;5.63;;;21.20;80.60;;;;;;5067399;28;20060;-64
2021/05/29 11:59:01;;;;;;;6.85;5.45;;;21.20;79.90;;;;;;5071431;28;20112;-64
2021/05/29 12:01:31;;;;;;;6.05;5.45;;;21.30;79.50;;;;;;5071023;28;20036;-64
2021/05/29 12:04:01;;;;;;;7.05;5.88;;;21.30;79.60;;;;;;5073709;28;20039;-64
2021/05/29 12:06:34;;;;;;;6.20;5.60;;;21.30;79.40;;;;;;5075441;28;20043;-64
2021/05/29 12:09:03;;;;;;;5.75;5.22;;;21.30;79.50;;;;;;5073982;28;21769;-64
2021/05/29 12:11:31;;;;;;;5.63;5.13;;;21.30;80.00;;;;;;5069570;28;20025;-64
2021/05/29 12:14:08;;;;;;;6.43;5.25;;;21.30;79.60;;;;;;5074816;28;20104;-64
2021/05/29 12:16:37;;;;;;;5.72;4.90;;;21.40;79.50;;;;;;5072654;28;20035;-64
2021/05/29 12:19:04;;;;;;;6.07;5.47;;;21.40;79.30;;;;;;5073292;28;20039;-64
2021/05/29 12:21:51;;;;;;;5.63;4.85;;;21.40;79.10;;;;;;5074276;28;20069;-64
2021/05/29 12:24:18;;;;;;;6.15;4.80;;;21.40;79.00;;;;;;5063986;28;20077;-64
2021/05/29 12:26:45;;;;;;;5.68;5.07;;;21.50;78.80;;;;;;5074259;28;20357;-64
2021/05/29 12:29:12;;;;;;;5.50;5.00;;;21.40;79.10;;;;;;5068723;28;20025;-64
2021/05/29 12:31:47;;;;;;;6.72;5.07;;;21.40;79.20;;;;;;5074928;28;20021;-64
2021/05/29 12:34:13;;;;;;;4.72;4.15;;;21.40;78.90;;;;;;5069071;28;20028;-64
2021/05/29 12:37:07;;;;;;;5.32;4.68;;;21.40;78.60;;;;;;5074309;28;20022;-64
2021/05/29 12:40:08;;;;;;;7.80;4.50;;;21.50;78.00;;;;;;5075258;28;20028;-64
2021/05/29 12:42:44;;;;;;;5.13;4.63;;;21.50;77.90;;;;;;5071167;28;20071;-64
2021/05/29 12:45:22;;;;;;;5.20;4.30;;;21.40;77.70;;;;;;5073611;28;20021;-64
2021/05/29 12:47:54;;;;;;;4.32;3.92;;;21.40;77.20;;;;;;5074365;28;20048;-64
2021/05/29 12:50:27;;;;;;;4.35;3.55;;;21.40;77.40;;;;;;5061490;28;20033;-64
2021/05/29 12:53:06;;;;;;;4.00;3.60;;;21.40;77.30;;;;;;5069512;28;20028;-64
2021/05/29 12:55:31;;;;;;;4.10;3.70;;;21.40;77.60;;;;;;5074050;28;20059;-64
2021/05/29 12:57:57;;;;;;;4.30;3.40;;;21.40;77.80;;;;;;5074253;28;20044;-64
2021/05/29 13:11:41;;;;;;;3.60;3.22;;;21.30;77.30;;;;;;5070536;28;20067;-64